Time;durP1;ratioP1;P1;durP2;ratioP2;P2;SDS_P1;SDS_P2;PMS_P1;PMS_P2;Temp;Humidity;BMP_temperature;BMP_pressure;BME280_temperature;BME280_humidity;BME280_pressure;Samples;Min_cycle;Max_cycle;Signal;HPM_P1;HPM_P2
2023/02/28 00:01:28;;;;;;;0.40;0.40;;;;;;;;;;4978281;28;20074;-66
2023/02/28 00:03:57;;;;;;;0.30;0.30;;;;;;;;;;4993287;28;20133;-67
2023/02/28 00:06:26;;;;;;;0.40;0.40;;;;;;;;;;4990103;28;20047;-65
2023/02/28 00:08:54;;;;;;;1.00;1.00;;;;;;;;;;4987699;28;20096;-66
2023/02/28 00:11:22;;;;;;;0.68;0.68;;;;;;;;;;4987074;28;20408;-66
2023/02/28 00:13:51;;;;;;;0.30;0.30;;;;;;;;;;4989704;28;20150;-66
2023/02/28 00:16:21;;;;;;;0.20;0.20;;;;;;;;;;4992551;28;20057;-65
2023/02/28 00:18:50;;;;;;;0.50;0.50;;;;;;;;;;4987662;28;20121;-66
2023/02/28 00:21:18;;;;;;;0.30;0.30;;;;;;;;;;4988605;28;20542;-66
2023/02/28 00:23:47;;;;;;;0.32;0.32;;;;;;;;;;4986008;28;20446;-66
2023/02/28 00:26:15;;;;;;;0.30;0.30;;;;;;;;;;4988383;28;20054;-66
2023/02/28 00:28:43;;;;;;;0.22;0.22;;;;;;;;;;4988698;28;20139;-66
2023/02/28 00:31:12;;;;;;;0.20;0.20;;;;;;;;;;4979147;28;20043;-66
2023/02/28 00:33:41;;;;;;;0.40;0.40;;;;;;;;;;4989295;28;20056;-66
2023/02/28 00:36:11;;;;;;;0.40;0.40;;;;;;;;;;4993978;28;20133;-66
2023/02/28 00:38:40;;;;;;;4.38;0.40;;;;;;;;;;4988908;28;20051;-66
2023/02/28 00:41:08;;;;;;;0.60;0.55;;;;;;;;;;4987394;28;20141;-66
2023/02/28 00:43:37;;;;;;;0.32;0.32;;;;;;;;;;4994004;28;20050;-66
2023/02/28 00:46:06;;;;;;;0.30;0.30;;;;;;;;;;4992275;28;20429;-66
2023/02/28 00:48:34;;;;;;;0.30;0.30;;;;;;;;;;4989754;28;20053;-66
2023/02/28 00:51:04;;;;;;;0.57;0.57;;;;;;;;;;4993386;28;20518;-66
2023/02/28 00:53:33;;;;;;;1.48;0.95;;;;;;;;;;4987581;28;20042;-66
2023/02/28 00:56:02;;;;;;;1.65;0.40;;;;;;;;;;4986827;28;20053;-66
2023/02/28 00:58:30;;;;;;;0.60;0.60;;;;;;;;;;4989372;28;20061;-66
2023/02/28 01:00:58;;;;;;;1.65;1.35;;;;;;;;;;4993649;28;20065;-66
2023/02/28 01:03:26;;;;;;;0.30;0.30;;;;;;;;;;4984020;28;20062;-66
2023/02/28 01:05:55;;;;;;;0.30;0.30;;;;;;;;;;4992015;28;20054;-66
2023/02/28 01:08:25;;;;;;;0.60;0.60;;;;;;;;;;4985864;28;20471;-66
2023/02/28 01:10:54;;;;;;;1.13;0.47;;;;;;;;;;4990451;28;20055;-66
2023/02/28 01:13:22;;;;;;;0.50;0.50;;;;;;;;;;4989552;28;20046;-66
2023/02/28 01:15:52;;;;;;;0.43;0.43;;;;;;;;;;4992229;28;20416;-66
2023/02/28 01:18:21;;;;;;;0.30;0.30;;;;;;;;;;4986518;28;20499;-66
2023/02/28 01:20:51;;;;;;;0.30;0.30;;;;;;;;;;4993139;28;20132;-66
2023/02/28 01:23:21;;;;;;;0.20;0.20;;;;;;;;;;4991653;28;20062;-66
2023/02/28 01:25:51;;;;;;;0.30;0.30;;;;;;;;;;4980919;28;20046;-66
2023/02/28 01:28:19;;;;;;;0.35;0.35;;;;;;;;;;4981732;28;20505;-66
2023/02/28 01:30:49;;;;;;;0.20;0.20;;;;;;;;;;4991397;28;20046;-66
2023/02/28 01:33:18;;;;;;;0.20;0.20;;;;;;;;;;4988572;28;20101;-66
2023/02/28 01:35:46;;;;;;;0.30;0.30;;;;;;;;;;4993107;28;20054;-66
2023/02/28 01:38:14;;;;;;;1.00;0.32;;;;;;;;;;4985129;28;20533;-66
2023/02/28 01:40:51;;;;;;;0.22;0.22;;;;;;;;;;4990399;28;20140;-66
2023/02/28 01:43:22;;;;;;;0.45;0.45;;;;;;;;;;4982311;28;20141;-66
2023/02/28 01:45:51;;;;;;;0.30;0.30;;;;;;;;;;4991590;28;20479;-66
2023/02/28 01:48:20;;;;;;;0.50;0.50;;;;;;;;;;4989581;28;20084;-67
2023/02/28 01:50:49;;;;;;;0.47;0.47;;;;;;;;;;4986789;28;20466;-66
2023/02/28 01:53:20;;;;;;;0.25;0.25;;;;;;;;;;4991123;28;20050;-66
2023/02/28 01:55:50;;;;;;;0.28;0.28;;;;;;;;;;4990697;28;20045;-66
2023/02/28 01:58:20;;;;;;;0.40;0.40;;;;;;;;;;4989925;28;20502;-66
2023/02/28 02:00:48;;;;;;;0.30;0.30;;;;;;;;;;4987311;28;20057;-66
2023/02/28 02:03:18;;;;;;;0.45;0.45;;;;;;;;;;4985076;28;20058;-66
2023/02/28 02:05:47;;;;;;;0.68;0.68;;;;;;;;;;4987618;28;20038;-66
2023/02/28 02:08:18;;;;;;;0.20;0.20;;;;;;;;;;4988340;28;20081;-66
2023/02/28 02:10:50;;;;;;;0.30;0.30;;;;;;;;;;4990365;28;20060;-66
2023/02/28 02:13:29;;;;;;;0.60;0.60;;;;;;;;;;4983572;28;20060;-66
2023/02/28 02:16:04;;;;;;;0.30;0.30;;;;;;;;;;4987419;28;20407;-66
2023/02/28 02:18:34;;;;;;;1.13;0.73;;;;;;;;;;4982244;28;20058;-66
2023/02/28 02:21:33;;;;;;;0.38;0.38;;;;;;;;;;4977609;28;20058;-66
2023/02/28 02:24:08;;;;;;;0.85;0.75;;;;;;;;;;4989922;28;20054;-66
2023/02/28 02:26:54;;;;;;;0.20;0.20;;;;;;;;;;4989170;28;20054;-66
2023/02/28 02:29:39;;;;;;;0.30;0.30;;;;;;;;;;4988073;28;20050;-66
2023/02/28 02:32:26;;;;;;;0.30;0.30;;;;;;;;;;4980186;28;20501;-66
2023/02/28 02:35:01;;;;;;;0.30;0.30;;;;;;;;;;4990014;28;20042;-66
2023/02/28 02:37:35;;;;;;;0.38;0.38;;;;;;;;;;4982245;28;20073;-66
2023/02/28 02:40:10;;;;;;;0.32;0.32;;;;;;;;;;4979639;28;20046;-66
2023/02/28 02:42:38;;;;;;;;;;;;;;;;;;4986271;28;20065;-66
2023/02/28 02:45:09;;;;;;;0.30;0.30;;;;;;;;;;4990084;28;19922;-66
2023/02/28 02:47:38;;;;;;;0.30;0.30;;;;;;;;;;4986591;28;20042;-66
2023/02/28 02:50:10;;;;;;;0.40;0.40;;;;;;;;;;4987993;28;20049;-66
2023/02/28 02:52:40;;;;;;;0.52;0.52;;;;;;;;;;4987987;28;20538;-66
2023/02/28 02:55:11;;;;;;;0.30;0.30;;;;;;;;;;4984075;28;20054;-66
2023/02/28 02:57:42;;;;;;;1.23;0.40;;;;;;;;;;4973704;28;20047;-66
2023/02/28 03:00:11;;;;;;;0.30;0.30;;;;;;;;;;4985578;28;20043;-66
2023/02/28 03:02:40;;;;;;;0.40;0.40;;;;;;;;;;4967810;28;20054;-66
2023/02/28 03:05:16;;;;;;;0.20;0.20;;;;;;;;;;4988195;28;20054;-66
2023/02/28 03:07:44;;;;;;;0.40;0.40;;;;;;;;;;4980203;28;20046;-66
2023/02/28 03:10:33;;;;;;;0.32;0.32;;;;;;;;;;4990830;28;20047;-66
2023/02/28 03:13:12;;;;;;;0.20;0.20;;;;;;;;;;4982503;28;20046;-66
2023/02/28 03:15:44;;;;;;;0.30;0.30;;;;;;;;;;4988809;28;20049;-66
2023/02/28 03:18:14;;;;;;;0.30;0.30;;;;;;;;;;4987712;28;20050;-66
2023/02/28 03:20:51;;;;;;;0.30;0.30;;;;;;;;;;4990892;28;20082;-66
2023/02/28 03:23:21;;;;;;;0.75;0.75;;;;;;;;;;4989205;28;20042;-66
2023/02/28 03:25:56;;;;;;;0.25;0.25;;;;;;;;;;4981511;28;20157;-66
2023/02/28 03:28:29;;;;;;;0.88;0.60;;;;;;;;;;4980214;28;20054;-66
2023/02/28 03:31:00;;;;;;;0.47;0.35;;;;;;;;;;4987941;28;20105;-66
2023/02/28 03:33:31;;;;;;;0.40;0.40;;;;;;;;;;4986142;28;20061;-66
2023/02/28 03:36:03;;;;;;;2.65;0.47;;;;;;;;;;4987943;28;20495;-66
2023/02/28 03:38:34;;;;;;;0.40;0.40;;;;;;;;;;4984473;28;20073;-66
2023/02/28 03:41:06;;;;;;;0.30;0.30;;;;;;;;;;4988376;28;20133;-66
2023/02/28 03:43:37;;;;;;;0.55;0.55;;;;;;;;;;4982388;28;20053;-66
2023/02/28 03:46:08;;;;;;;0.52;0.52;;;;;;;;;;4988999;28;20050;-66
2023/02/28 03:48:40;;;;;;;0.28;0.28;;;;;;;;;;4986695;28;20065;-66
2023/02/28 03:51:11;;;;;;;0.98;0.60;;;;;;;;;;4989445;28;20061;-66
2023/02/28 03:53:42;;;;;;;1.55;0.63;;;;;;;;;;4984796;28;20050;-66
2023/02/28 03:56:13;;;;;;;3.28;0.85;;;;;;;;;;4988453;28;20041;-66
2023/02/28 03:58:44;;;;;;;0.45;0.45;;;;;;;;;;4981436;28;20050;-66
2023/02/28 04:01:14;;;;;;;1.75;0.95;;;;;;;;;;4979203;28;20058;-66
2023/02/28 04:03:42;;;;;;;0.20;0.20;;;;;;;;;;4985473;28;20389;-66
2023/02/28 04:06:17;;;;;;;0.30;0.30;;;;;;;;;;4979826;28;20057;-66
2023/02/28 04:08:45;;;;;;;0.30;0.30;;;;;;;;;;4992303;28;20050;-66
2023/02/28 04:11:20;;;;;;;0.70;0.70;;;;;;;;;;4988161;28;20047;-66
2023/02/28 04:13:48;;;;;;;0.35;0.35;;;;;;;;;;4990177;28;20053;-66
2023/02/28 04:16:16;;;;;;;0.57;0.57;;;;;;;;;;4986094;28;20043;-66
2023/02/28 04:19:02;;;;;;;0.63;0.63;;;;;;;;;;4975338;28;20396;-66
2023/02/28 04:21:32;;;;;;;1.05;0.47;;;;;;;;;;4990260;28;20483;-66
2023/02/28 04:24:01;;;;;;;0.30;0.30;;;;;;;;;;4984084;28;20043;-65
2023/02/28 04:26:30;;;;;;;0.50;0.50;;;;;;;;;;4986579;28;20407;-65
2023/02/28 04:28:59;;;;;;;0.90;0.90;;;;;;;;;;4990210;28;20054;-66
2023/02/28 04:31:27;;;;;;;0.45;0.38;;;;;;;;;;4988941;28;20158;-66
2023/02/28 04:33:56;;;;;;;0.22;0.22;;;;;;;;;;4989437;28;20129;-66
2023/02/28 04:36:24;;;;;;;1.35;0.65;;;;;;;;;;4991946;28;20510;-66
2023/02/28 04:38:54;;;;;;;0.35;0.35;;;;;;;;;;4990267;28;20410;-66
2023/02/28 04:41:23;;;;;;;0.65;0.45;;;;;;;;;;4988599;28;20436;-66
2023/02/28 04:43:52;;;;;;;0.40;0.40;;;;;;;;;;4993835;28;20042;-66
2023/02/28 04:46:21;;;;;;;0.47;0.47;;;;;;;;;;4991517;28;20042;-66
2023/02/28 04:48:49;;;;;;;0.30;0.30;;;;;;;;;;4987212;28;20050;-66
2023/02/28 04:51:18;;;;;;;1.10;0.93;;;;;;;;;;4990003;28;20062;-66
2023/02/28 04:53:47;;;;;;;0.68;0.68;;;;;;;;;;4987119;28;20066;-66
2023/02/28 04:56:19;;;;;;;0.40;0.40;;;;;;;;;;4989487;28;20416;-66
2023/02/28 04:58:48;;;;;;;0.60;0.60;;;;;;;;;;4991437;28;21374;-66
2023/02/28 05:01:19;;;;;;;0.50;0.50;;;;;;;;;;4988144;28;20141;-66
2023/02/28 05:03:47;;;;;;;0.55;0.55;;;;;;;;;;4987912;28;20053;-66
2023/02/28 05:06:15;;;;;;;0.93;0.93;;;;;;;;;;4991738;28;20073;-66
2023/02/28 05:08:44;;;;;;;0.55;0.55;;;;;;;;;;4991350;28;20052;-66
2023/02/28 05:11:15;;;;;;;1.23;1.13;;;;;;;;;;4987786;28;20162;-66
2023/02/28 05:13:45;;;;;;;0.20;0.20;;;;;;;;;;4990080;28;20076;-66
2023/02/28 05:16:14;;;;;;;0.30;0.30;;;;;;;;;;4988832;28;20096;-66
2023/02/28 05:18:42;;;;;;;0.40;0.40;;;;;;;;;;4988971;28;20046;-66
2023/02/28 05:21:24;;;;;;;0.60;0.60;;;;;;;;;;4987370;28;20093;-66
2023/02/28 05:23:53;;;;;;;0.60;0.60;;;;;;;;;;4981381;28;20580;-66
2023/02/28 05:26:21;;;;;;;0.57;0.57;;;;;;;;;;4985609;28;20046;-66
2023/02/28 05:28:50;;;;;;;0.40;0.40;;;;;;;;;;4981977;28;20508;-66
2023/02/28 05:31:19;;;;;;;0.47;0.47;;;;;;;;;;4989670;28;20061;-66
2023/02/28 05:33:47;;;;;;;0.40;0.40;;;;;;;;;;4980881;28;20054;-66
2023/02/28 05:36:16;;;;;;;0.30;0.30;;;;;;;;;;4988673;28;20045;-66
2023/02/28 05:38:44;;;;;;;1.48;1.33;;;;;;;;;;4987093;28;20046;-66
2023/02/28 05:41:13;;;;;;;0.30;0.30;;;;;;;;;;4988404;28;20097;-66
2023/02/28 05:43:41;;;;;;;0.50;0.50;;;;;;;;;;4986854;28;20052;-66
2023/02/28 05:46:11;;;;;;;0.68;0.50;;;;;;;;;;4982261;28;20061;-66
2023/02/28 05:48:40;;;;;;;0.40;0.40;;;;;;;;;;4983641;28;20054;-66
2023/02/28 05:51:09;;;;;;;0.80;0.77;;;;;;;;;;4984746;28;20054;-65
2023/02/28 05:53:38;;;;;;;2.78;1.23;;;;;;;;;;4987543;28;20125;-66
2023/02/28 05:56:06;;;;;;;0.85;0.70;;;;;;;;;;4982728;28;20065;-66
2023/02/28 05:58:34;;;;;;;0.95;0.88;;;;;;;;;;4983361;28;20049;-66
2023/02/28 06:01:20;;;;;;;0.40;0.40;;;;;;;;;;4984975;28;20515;-66
2023/02/28 06:03:50;;;;;;;0.55;0.55;;;;;;;;;;4983910;28;20097;-65
2023/02/28 06:06:18;;;;;;;0.73;0.73;;;;;;;;;;4985261;28;20411;-65
2023/02/28 06:08:47;;;;;;;0.30;0.30;;;;;;;;;;4985898;28;20038;-66
2023/02/28 06:11:15;;;;;;;0.47;0.47;;;;;;;;;;4984464;28;20069;-65
2023/02/28 06:13:43;;;;;;;0.93;0.90;;;;;;;;;;4984924;28;20483;-66
2023/02/28 06:16:12;;;;;;;0.68;0.68;;;;;;;;;;4989781;28;20042;-66
2023/02/28 06:18:40;;;;;;;0.88;0.70;;;;;;;;;;4984975;28;20491;-66
2023/02/28 06:21:10;;;;;;;1.10;0.43;;;;;;;;;;4987026;28;20070;-65
2023/02/28 06:23:38;;;;;;;2.45;1.67;;;;;;;;;;4982995;28;20475;-66
2023/02/28 06:26:07;;;;;;;0.40;0.40;;;;;;;;;;4990101;28;20056;-66
2023/02/28 06:28:35;;;;;;;0.52;0.52;;;;;;;;;;4984351;28;20274;-65
2023/02/28 06:31:07;;;;;;;0.40;0.40;;;;;;;;;;4989089;28;20047;-65
2023/02/28 06:33:36;;;;;;;0.43;0.43;;;;;;;;;;4990336;28;20430;-66
2023/02/28 06:36:05;;;;;;;0.85;0.85;;;;;;;;;;4978953;28;20060;-66
2023/02/28 06:38:35;;;;;;;0.73;0.40;;;;;;;;;;4988569;28;20042;-66
2023/02/28 06:41:04;;;;;;;1.30;0.65;;;;;;;;;;4986628;28;20133;-68
2023/02/28 06:43:35;;;;;;;0.73;0.60;;;;;;;;;;4988409;28;20046;-66
2023/02/28 06:46:04;;;;;;;0.30;0.30;;;;;;;;;;4991678;28;20049;-66
2023/02/28 06:48:32;;;;;;;0.60;0.60;;;;;;;;;;4986477;28;20073;-66
2023/02/28 06:51:04;;;;;;;3.30;1.52;;;;;;;;;;4983363;28;20133;-66
2023/02/28 06:53:32;;;;;;;0.95;0.73;;;;;;;;;;4989023;28;20051;-66
2023/02/28 06:56:05;;;;;;;0.88;0.70;;;;;;;;;;4973517;28;20047;-67
2023/02/28 06:58:33;;;;;;;0.90;0.77;;;;;;;;;;4988396;28;20141;-67
2023/02/28 07:01:02;;;;;;;2.15;1.02;;;;;;;;;;4987729;28;20042;-67
2023/02/28 07:03:30;;;;;;;1.73;0.95;;;;;;;;;;4988040;28;20073;-68
2023/02/28 07:06:02;;;;;;;2.15;1.75;;;;;;;;;;4985543;28;20050;-67
2023/02/28 07:08:32;;;;;;;1.08;0.98;;;;;;;;;;4988255;28;20046;-67
2023/02/28 07:11:02;;;;;;;0.30;0.30;;;;;;;;;;4991587;28;20057;-66
2023/02/28 07:13:30;;;;;;;0.40;0.40;;;;;;;;;;4986595;28;20046;-67
2023/02/28 07:16:00;;;;;;;0.70;0.70;;;;;;;;;;4989527;28;20058;-66
2023/02/28 07:18:28;;;;;;;0.55;0.55;;;;;;;;;;4988921;28;20061;-67
2023/02/28 07:20:57;;;;;;;0.85;0.80;;;;;;;;;;4989924;28;20052;-66
2023/02/28 07:23:26;;;;;;;1.98;1.67;;;;;;;;;;4989952;28;20104;-66
2023/02/28 07:25:54;;;;;;;0.25;0.25;;;;;;;;;;4984482;28;20058;-66
2023/02/28 07:28:24;;;;;;;1.05;0.95;;;;;;;;;;4984560;28;20406;-67
2023/02/28 07:30:52;;;;;;;1.92;1.67;;;;;;;;;;4989332;28;20050;-66
2023/02/28 07:33:20;;;;;;;1.02;0.88;;;;;;;;;;4989650;28;20050;-66
2023/02/28 07:35:49;;;;;;;0.77;0.77;;;;;;;;;;4987157;28;20130;-68
2023/02/28 07:38:17;;;;;;;1.98;1.80;;;;;;;;;;4986320;28;20063;-68
2023/02/28 07:40:45;;;;;;;0.50;0.50;;;;;;;;;;4991269;28;20038;-69
2023/02/28 07:43:14;;;;;;;1.15;1.00;;;;;;;;;;4995324;28;20383;-69
2023/02/28 07:45:44;;;;;;;0.63;0.63;;;;;;;;;;4988239;28;21414;-68
2023/02/28 07:48:12;;;;;;;1.15;0.98;;;;;;;;;;4983529;28;20046;-69
2023/02/28 07:50:40;;;;;;;1.00;0.85;;;;;;;;;;4988211;28;20055;-68
2023/02/28 07:53:09;;;;;;;0.70;0.65;;;;;;;;;;4987589;28;20495;-69
2023/02/28 07:55:37;;;;;;;1.58;1.48;;;;;;;;;;4991249;28;20095;-68
2023/02/28 07:58:05;;;;;;;2.25;1.40;;;;;;;;;;4990266;28;20046;-69
2023/02/28 08:00:34;;;;;;;0.47;0.47;;;;;;;;;;4990917;28;20053;-68
2023/02/28 08:03:03;;;;;;;1.10;0.90;;;;;;;;;;4992210;28;20042;-66
2023/02/28 08:05:32;;;;;;;1.83;1.42;;;;;;;;;;4996074;28;20046;-70
2023/02/28 08:08:00;;;;;;;0.95;0.93;;;;;;;;;;4993811;28;20173;-69
2023/02/28 08:10:28;;;;;;;0.52;0.52;;;;;;;;;;4993053;28;20471;-69
2023/02/28 08:12:57;;;;;;;0.93;0.93;;;;;;;;;;4992186;28;20053;-67
2023/02/28 08:15:25;;;;;;;2.53;0.88;;;;;;;;;;5000308;28;20047;-69
2023/02/28 08:17:55;;;;;;;1.52;1.35;;;;;;;;;;4992262;28;20080;-69
2023/02/28 08:20:25;;;;;;;1.17;1.08;;;;;;;;;;4992259;28;20043;-68
2023/02/28 08:22:54;;;;;;;1.33;1.23;;;;;;;;;;4994295;28;20062;-66
2023/02/28 08:25:23;;;;;;;8.35;2.08;;;;;;;;;;4990013;28;20043;-70
2023/02/28 08:27:52;;;;;;;3.17;1.77;;;;;;;;;;4984117;28;20500;-69
2023/02/28 08:30:21;;;;;;;0.63;0.63;;;;;;;;;;4990988;28;20055;-66
2023/02/28 08:32:50;;;;;;;2.22;1.73;;;;;;;;;;4992606;28;20046;-68
2023/02/28 08:35:18;;;;;;;0.38;0.30;;;;;;;;;;4992457;28;20050;-69
2023/02/28 08:37:49;;;;;;;2.83;0.80;;;;;;;;;;4988579;28;20050;-68
2023/02/28 08:40:18;;;;;;;1.85;1.17;;;;;;;;;;4993511;28;20074;-67
2023/02/28 08:42:47;;;;;;;0.50;0.50;;;;;;;;;;4993343;28;20050;-67
2023/02/28 08:45:16;;;;;;;2.15;1.50;;;;;;;;;;4991317;28;20054;-68
2023/02/28 08:47:44;;;;;;;0.75;0.75;;;;;;;;;;4986028;28;20054;-68
2023/02/28 08:50:14;;;;;;;4.63;1.05;;;;;;;;;;4992681;28;20352;-69
2023/02/28 08:52:44;;;;;;;6.55;2.72;;;;;;;;;;4990381;28;20046;-70
2023/02/28 08:55:13;;;;;;;1.73;1.40;;;;;;;;;;4988058;28;20129;-68
2023/02/28 08:57:42;;;;;;;0.77;0.77;;;;;;;;;;4992625;28;20142;-68
2023/02/28 09:00:13;;;;;;;1.92;0.77;;;;;;;;;;4986218;28;20047;-68
2023/02/28 09:02:43;;;;;;;1.67;1.58;;;;;;;;;;4989475;28;20089;-68
2023/02/28 09:05:11;;;;;;;2.47;2.28;;;;;;;;;;4986176;28;20046;-68
2023/02/28 09:07:40;;;;;;;1.85;1.45;;;;;;;;;;4985773;28;20082;-68
2023/02/28 09:10:09;;;;;;;1.27;1.27;;;;;;;;;;4987699;28;20042;-69
2023/02/28 09:12:39;;;;;;;2.17;1.65;;;;;;;;;;4984946;28;20051;-68
2023/02/28 09:15:08;;;;;;;3.15;0.82;;;;;;;;;;4991610;28;20108;-69
2023/02/28 09:17:36;;;;;;;7.82;2.50;;;;;;;;;;4991047;28;20471;-68
2023/02/28 09:20:06;;;;;;;0.90;0.88;;;;;;;;;;4990812;28;20553;-69
2023/02/28 09:22:34;;;;;;;0.88;0.70;;;;;;;;;;4991112;28;20050;-68
2023/02/28 09:25:02;;;;;;;4.03;1.85;;;;;;;;;;4994170;28;20058;-68
2023/02/28 09:27:30;;;;;;;0.93;0.93;;;;;;;;;;4984801;28;20063;-68
2023/02/28 09:30:00;;;;;;;0.95;0.95;;;;;;;;;;4986898;28;20051;-66
2023/02/28 09:32:29;;;;;;;2.72;1.70;;;;;;;;;;4992078;28;20125;-68
2023/02/28 09:34:57;;;;;;;2.33;1.50;;;;;;;;;;4991658;28;20046;-71
2023/02/28 09:37:30;;;;;;;2.17;1.70;;;;;;;;;;4986157;28;20187;-68
2023/02/28 09:39:59;;;;;;;1.45;1.35;;;;;;;;;;4990091;28;20518;-68
2023/02/28 09:42:31;;;;;;;2.70;1.92;;;;;;;;;;4986036;28;20060;-68
2023/02/28 09:45:02;;;;;;;0.63;0.63;;;;;;;;;;4985215;28;20042;-69
2023/02/28 09:47:32;;;;;;;0.45;0.45;;;;;;;;;;4991252;28;20054;-68
2023/02/28 09:50:16;;;;;;;1.30;1.20;;;;;;;;;;4991691;28;20042;-68
2023/02/28 09:52:47;;;;;;;1.13;1.13;;;;;;;;;;4992286;28;20054;-68
2023/02/28 09:55:20;;;;;;;2.78;1.52;;;;;;;;;;4987332;28;20050;-68
2023/02/28 09:57:50;;;;;;;0.82;0.73;;;;;;;;;;4984000;28;20476;-69
2023/02/28 10:00:22;;;;;;;1.38;1.23;;;;;;;;;;4987642;28;20093;-68
2023/02/28 10:02:58;;;;;;;1.92;0.88;;;;;;;;;;4984560;28;20057;-68
2023/02/28 10:05:28;;;;;;;4.00;1.92;;;;;;;;;;4986283;28;20141;-68
2023/02/28 10:08:04;;;;;;;3.08;1.70;;;;;;;;;;4987291;28;20121;-68
2023/02/28 10:10:37;;;;;;;2.22;1.55;;;;;;;;;;4973767;28;20047;-69
2023/02/28 10:13:08;;;;;;;5.55;0.90;;;;;;;;;;4983909;28;20058;-67
2023/02/28 10:15:38;;;;;;;0.63;0.63;;;;;;;;;;4984280;28;20054;-69
2023/02/28 10:18:08;;;;;;;2.92;1.92;;;;;;;;;;4986456;28;20050;-68
2023/02/28 10:20:39;;;;;;;8.75;2.95;;;;;;;;;;4987431;28;20061;-67
2023/02/28 10:23:12;;;;;;;3.90;2.33;;;;;;;;;;4990699;28;20054;-67
2023/02/28 10:25:40;;;;;;;6.03;2.03;;;;;;;;;;4993930;28;20054;-67
2023/02/28 10:28:13;;;;;;;3.42;2.72;;;;;;;;;;4981217;28;20053;-67
2023/02/28 10:30:46;;;;;;;4.53;3.00;;;;;;;;;;4990287;28;20066;-66
2023/02/28 10:33:23;;;;;;;1.98;1.08;;;;;;;;;;4987771;28;20055;-67
2023/02/28 10:35:52;;;;;;;1.25;1.13;;;;;;;;;;4982995;28;20042;-67
2023/02/28 10:38:22;;;;;;;5.18;2.05;;;;;;;;;;4984227;28;20108;-67
2023/02/28 10:40:50;;;;;;;1.40;1.05;;;;;;;;;;4990110;28;20487;-67
2023/02/28 10:43:21;;;;;;;1.58;1.42;;;;;;;;;;4989675;28;20053;-66
2023/02/28 10:45:59;;;;;;;1.50;1.10;;;;;;;;;;4987919;28;20502;-67
2023/02/28 10:48:38;;;;;;;5.82;2.65;;;;;;;;;;4987021;28;20062;-66
2023/02/28 10:51:08;;;;;;;1.73;1.23;;;;;;;;;;4986164;28;20053;-66
2023/02/28 10:53:47;;;;;;;4.80;1.83;;;;;;;;;;4972758;28;20134;-66
2023/02/28 10:56:28;;;;;;;2.50;2.28;;;;;;;;;;4986567;28;20526;-66
2023/02/28 10:58:59;;;;;;;2.00;1.35;;;;;;;;;;4989399;28;20117;-66
2023/02/28 11:01:38;;;;;;;2.40;2.00;;;;;;;;;;4985250;28;20136;-66
2023/02/28 11:04:18;;;;;;;0.68;0.68;;;;;;;;;;4979428;28;20097;-65
2023/02/28 11:06:47;;;;;;;2.40;1.60;;;;;;;;;;4983563;28;20061;-66
2023/02/28 11:09:19;;;;;;;6.80;3.17;;;;;;;;;;4981353;28;20078;-67
2023/02/28 11:11:48;;;;;;;2.45;1.33;;;;;;;;;;4981381;28;20090;-66
2023/02/28 11:14:21;;;;;;;1.33;1.23;;;;;;;;;;4983211;28;20438;-67
2023/02/28 11:16:51;;;;;;;1.50;1.40;;;;;;;;;;4982182;28;20157;-67
2023/02/28 11:19:21;;;;;;;8.07;2.38;;;;;;;;;;4989715;28;20165;-66
2023/02/28 11:21:53;;;;;;;3.35;1.52;;;;;;;;;;4986851;28;20074;-67
2023/02/28 11:24:24;;;;;;;4.32;2.20;;;;;;;;;;4990039;28;20113;-67
2023/02/28 11:26:52;;;;;;;3.15;1.80;;;;;;;;;;4989834;28;20116;-66
2023/02/28 11:29:22;;;;;;;2.63;1.70;;;;;;;;;;4989521;28;20050;-67
2023/02/28 11:32:06;;;;;;;2.13;0.85;;;;;;;;;;4989005;28;20046;-67
2023/02/28 11:34:36;;;;;;;2.92;1.98;;;;;;;;;;4981047;28;20058;-67
2023/02/28 11:37:06;;;;;;;1.67;1.58;;;;;;;;;;4984752;28;20076;-66
2023/02/28 11:39:34;;;;;;;2.88;1.58;;;;;;;;;;4986523;28;20050;-68
2023/02/28 11:42:17;;;;;;;2.33;2.05;;;;;;;;;;4988618;28;20042;-67
2023/02/28 11:45:03;;;;;;;3.63;1.83;;;;;;;;;;4989303;28;20384;-68
2023/02/28 11:47:40;;;;;;;1.45;1.35;;;;;;;;;;4987431;28;20056;-67
2023/02/28 11:50:20;;;;;;;3.80;1.33;;;;;;;;;;4990193;28;20089;-67
2023/02/28 11:52:52;;;;;;;5.40;2.75;;;;;;;;;;4989146;28;20141;-67
2023/02/28 11:55:25;;;;;;;4.10;2.15;;;;;;;;;;4989792;28;20080;-67
2023/02/28 11:57:58;;;;;;;3.85;1.75;;;;;;;;;;4987163;28;20415;-67
2023/02/28 12:00:32;;;;;;;1.55;1.13;;;;;;;;;;4985992;28;20042;-67
2023/02/28 12:03:06;;;;;;;2.60;2.28;;;;;;;;;;4989173;28;20058;-67
2023/02/28 12:05:37;;;;;;;4.82;2.05;;;;;;;;;;4985831;28;20150;-67
2023/02/28 12:08:13;;;;;;;1.92;1.27;;;;;;;;;;4978899;28;20582;-67
2023/02/28 12:10:46;;;;;;;3.22;2.05;;;;;;;;;;4979138;28;20050;-67
2023/02/28 12:13:18;;;;;;;3.92;2.40;;;;;;;;;;4972134;28;20058;-67
2023/02/28 12:16:01;;;;;;;2.10;1.55;;;;;;;;;;4990144;28;20046;-68
2023/02/28 12:18:40;;;;;;;4.82;1.60;;;;;;;;;;4983306;28;20050;-67
2023/02/28 12:21:12;;;;;;;3.60;2.60;;;;;;;;;;4988193;28;20056;-66
2023/02/28 12:23:49;;;;;;;4.00;2.17;;;;;;;;;;4989814;28;20047;-66
2023/02/28 12:26:21;;;;;;;2.55;1.50;;;;;;;;;;4983705;28;20498;-66
2023/02/28 12:28:50;;;;;;;6.88;1.73;;;;;;;;;;4985471;28;20056;-67
2023/02/28 12:31:21;;;;;;;1.58;1.48;;;;;;;;;;4982499;28;20050;-67
2023/02/28 12:33:53;;;;;;;5.00;2.03;;;;;;;;;;4985892;28;20053;-67
2023/02/28 12:36:23;;;;;;;7.95;1.88;;;;;;;;;;4987262;28;20057;-67
2023/02/28 12:38:55;;;;;;;3.72;1.42;;;;;;;;;;4989106;28;20054;-67
2023/02/28 12:41:26;;;;;;;5.50;2.25;;;;;;;;;;4985937;28;20583;-67
2023/02/28 12:43:59;;;;;;;12.32;3.08;;;;;;;;;;4990430;28;20085;-67
2023/02/28 12:46:31;;;;;;;1.80;1.67;;;;;;;;;;4985336;28;20050;-66
2023/02/28 12:49:02;;;;;;;3.75;2.60;;;;;;;;;;4990369;28;20057;-67
2023/02/28 12:51:30;;;;;;;1.80;1.30;;;;;;;;;;4988021;28;20054;-67
2023/02/28 12:54:04;;;;;;;4.60;2.30;;;;;;;;;;4988815;28;20050;-66
2023/02/28 12:56:36;;;;;;;5.63;1.70;;;;;;;;;;4989676;28;20133;-67
2023/02/28 12:59:09;;;;;;;4.32;1.65;;;;;;;;;;4989182;28;20060;-67
2023/02/28 13:01:44;;;;;;;6.68;2.35;;;;;;;;;;4989921;28;20085;-67
2023/02/28 13:04:40;;;;;;;4.60;2.20;;;;;;;;;;4993094;28;20066;-67
2023/02/28 13:07:28;;;;;;;1.92;1.75;;;;;;;;;;4953240;28;20053;-67
2023/02/28 13:09:58;;;;;;;2.20;1.65;;;;;;;;;;4991445;28;20129;-67
2023/02/28 13:12:27;;;;;;;1.30;1.20;;;;;;;;;;4987816;28;20061;-67
2023/02/28 13:15:04;;;;;;;3.65;1.92;;;;;;;;;;4984085;28;20137;-67
2023/02/28 13:17:33;;;;;;;3.05;2.25;;;;;;;;;;4990360;28;20042;-66
2023/02/28 13:20:03;;;;;;;5.85;2.13;;;;;;;;;;4991959;28;20066;-68
2023/02/28 13:22:40;;;;;;;4.18;2.80;;;;;;;;;;4980037;28;20073;-67
2023/02/28 13:25:28;;;;;;;9.77;2.58;;;;;;;;;;4980864;28;20133;-66
2023/02/28 13:28:00;;;;;;;5.65;1.83;;;;;;;;;;4986853;28;20129;-67
2023/02/28 13:30:44;;;;;;;2.38;1.30;;;;;;;;;;4984911;28;20141;-67
2023/02/28 13:33:26;;;;;;;4.05;2.08;;;;;;;;;;4977893;28;20054;-67
2023/02/28 13:36:12;;;;;;;4.05;2.17;;;;;;;;;;4989174;28;20061;-67
2023/02/28 13:38:42;;;;;;;2.22;1.70;;;;;;;;;;4983183;28;20081;-66
2023/02/28 13:41:38;;;;;;;6.55;2.28;;;;;;;;;;4990238;28;20042;-66
2023/02/28 13:44:08;;;;;;;1.58;1.48;;;;;;;;;;4987602;28;20546;-66
2023/02/28 13:46:38;;;;;;;4.28;2.85;;;;;;;;;;4985918;28;20065;-67
2023/02/28 13:49:21;;;;;;;2.85;2.33;;;;;;;;;;4985099;28;20074;-67
2023/02/28 13:51:50;;;;;;;2.63;2.00;;;;;;;;;;4986578;28;20046;-67
2023/02/28 13:54:32;;;;;;;4.15;1.85;;;;;;;;;;4988824;28;20047;-67
2023/02/28 13:57:08;;;;;;;3.40;2.30;;;;;;;;;;4987121;28;20563;-67
2023/02/28 13:59:40;;;;;;;4.22;2.53;;;;;;;;;;4983395;28;20503;-67
2023/02/28 14:02:30;;;;;;;4.88;2.00;;;;;;;;;;4986811;28;20089;-67
2023/02/28 14:05:03;;;;;;;3.20;1.65;;;;;;;;;;4990052;28;20050;-67
2023/02/28 14:07:33;;;;;;;1.52;1.13;;;;;;;;;;4977169;28;20039;-67
2023/02/28 14:10:08;;;;;;;0.73;0.73;;;;;;;;;;4987696;28;20129;-67
2023/02/28 14:12:56;;;;;;;8.48;3.15;;;;;;;;;;4978514;28;20462;-67
2023/02/28 14:15:42;;;;;;;5.78;2.75;;;;;;;;;;4982337;28;20058;-67
2023/02/28 14:18:18;;;;;;;5.47;2.25;;;;;;;;;;4985479;28;20046;-67
2023/02/28 14:20:47;;;;;;;6.88;2.17;;;;;;;;;;4985920;28;20052;-67
2023/02/28 14:23:21;;;;;;;4.38;2.50;;;;;;;;;;4986533;28;20058;-67
2023/02/28 14:25:54;;;;;;;3.47;2.20;;;;;;;;;;4984134;28;20096;-67
2023/02/28 14:28:29;;;;;;;4.28;2.47;;;;;;;;;;4988491;28;20046;-67
2023/02/28 14:31:03;;;;;;;5.13;2.38;;;;;;;;;;4989296;28;20459;-67
2023/02/28 14:33:48;;;;;;;4.45;1.83;;;;;;;;;;4986040;28;20774;-67
2023/02/28 14:36:20;;;;;;;3.85;2.38;;;;;;;;;;4988442;28;20129;-67
2023/02/28 14:38:52;;;;;;;1.25;1.10;;;;;;;;;;4984230;28;20129;-67
2023/02/28 14:41:30;;;;;;;6.38;2.90;;;;;;;;;;4985496;28;20153;-67
2023/02/28 14:43:59;;;;;;;4.85;1.75;;;;;;;;;;4976248;28;20484;-67
2023/02/28 14:46:29;;;;;;;4.25;1.90;;;;;;;;;;4980808;28;20499;-66
2023/02/28 14:48:59;;;;;;;2.50;2.30;;;;;;;;;;4986235;28;20054;-67
2023/02/28 14:51:27;;;;;;;4.30;2.33;;;;;;;;;;4981940;28;20125;-67
2023/02/28 14:53:58;;;;;;;1.92;1.42;;;;;;;;;;4991397;28;20558;-67
2023/02/28 14:56:31;;;;;;;7.38;3.35;;;;;;;;;;4987586;28;20466;-67
2023/02/28 14:59:00;;;;;;;6.90;3.10;;;;;;;;;;4989218;28;20133;-67
2023/02/28 15:01:29;;;;;;;6.13;2.58;;;;;;;;;;4986561;28;20050;-67
2023/02/28 15:04:02;;;;;;;7.38;2.22;;;;;;;;;;4988147;28;20069;-67
2023/02/28 15:06:31;;;;;;;8.15;1.73;;;;;;;;;;4986404;28;20058;-67
2023/02/28 15:09:10;;;;;;;3.20;2.45;;;;;;;;;;4983526;28;20050;-67